sensor_id;sensor_type;location;lat;lon;timestamp;P1;durP1;ratioP1;P2;durP2;ratioP2
2338;SDS011;1180;51.438;6.978;2023-02-26T00:01:48;7.47;;;2.80;;
2338;SDS011;1180;51.438;6.978;2023-02-26T00:04:14;5.83;;;4.57;;
2338;SDS011;1180;51.438;6.978;2023-02-26T00:06:40;3.63;;;2.27;;
2338;SDS011;1180;51.438;6.978;2023-02-26T00:09:19;7.13;;;2.83;;
2338;SDS011;1180;51.438;6.978;2023-02-26T00:11:46;2.80;;;1.92;;
2338;SDS011;1180;51.438;6.978;2023-02-26T00:14:12;10.55;;;2.72;;
2338;SDS011;1180;51.438;6.978;2023-02-26T00:16:39;7.10;;;2.22;;
2338;SDS011;1180;51.438;6.978;2023-02-26T00:19:06;3.53;;;1.73;;
2338;SDS011;1180;51.438;6.978;2023-02-26T00:21:33;5.38;;;1.90;;
2338;SDS011;1180;51.438;6.978;2023-02-26T00:23:59;3.67;;;1.80;;
2338;SDS011;1180;51.438;6.978;2023-02-26T00:26:26;7.20;;;1.92;;
2338;SDS011;1180;51.438;6.978;2023-02-26T00:28:53;4.80;;;1.80;;
2338;SDS011;1180;51.438;6.978;2023-02-26T00:31:19;5.43;;;2.07;;
2338;SDS011;1180;51.438;6.978;2023-02-26T00:33:48;3.45;;;1.48;;
2338;SDS011;1180;51.438;6.978;2023-02-26T00:41:55;7.28;;;1.48;;
2338;SDS011;1180;51.438;6.978;2023-02-26T00:44:21;4.10;;;1.43;;
2338;SDS011;1180;51.438;6.978;2023-02-26T00:52:01;4.72;;;1.40;;
2338;SDS011;1180;51.438;6.978;2023-02-26T00:54:31;2.60;;;1.75;;
2338;SDS011;1180;51.438;6.978;2023-02-26T00:56:57;4.07;;;1.40;;
2338;SDS011;1180;51.438;6.978;2023-02-26T00:59:23;4.07;;;1.80;;
2338;SDS011;1180;51.438;6.978;2023-02-26T01:01:49;3.08;;;2.35;;
2338;SDS011;1180;51.438;6.978;2023-02-26T01:04:17;4.03;;;1.95;;
2338;SDS011;1180;51.438;6.978;2023-02-26T01:07:03;6.03;;;2.30;;
2338;SDS011;1180;51.438;6.978;2023-02-26T01:09:30;3.17;;;1.63;;
2338;SDS011;1180;51.438;6.978;2023-02-26T01:11:59;7.18;;;2.28;;
2338;SDS011;1180;51.438;6.978;2023-02-26T01:14:27;3.47;;;1.77;;
2338;SDS011;1180;51.438;6.978;2023-02-26T01:16:58;5.07;;;2.35;;
2338;SDS011;1180;51.438;6.978;2023-02-26T01:19:49;5.07;;;1.73;;
2338;SDS011;1180;51.438;6.978;2023-02-26T01:22:22;6.40;;;1.83;;
2338;SDS011;1180;51.438;6.978;2023-02-26T01:24:59;4.30;;;1.63;;
2338;SDS011;1180;51.438;6.978;2023-02-26T01:27:28;5.10;;;1.60;;
2338;SDS011;1180;51.438;6.978;2023-02-26T01:29:53;3.50;;;1.67;;
2338;SDS011;1180;51.438;6.978;2023-02-26T01:43:53;1.55;;;1.33;;
2338;SDS011;1180;51.438;6.978;2023-02-26T01:49:36;1.55;;;1.45;;
2338;SDS011;1180;51.438;6.978;2023-02-26T01:55:07;2.38;;;1.27;;
2338;SDS011;1180;51.438;6.978;2023-02-26T01:57:32;9.53;;;1.50;;
2338;SDS011;1180;51.438;6.978;2023-02-26T01:59:59;4.07;;;1.65;;
2338;SDS011;1180;51.438;6.978;2023-02-26T02:02:24;4.70;;;1.50;;
2338;SDS011;1180;51.438;6.978;2023-02-26T02:04:49;2.47;;;1.10;;
2338;SDS011;1180;51.438;6.978;2023-02-26T02:07:15;3.57;;;1.23;;
2338;SDS011;1180;51.438;6.978;2023-02-26T02:09:42;4.10;;;1.10;;
2338;SDS011;1180;51.438;6.978;2023-02-26T02:12:28;2.80;;;1.17;;
2338;SDS011;1180;51.438;6.978;2023-02-26T02:20:20;2.83;;;1.30;;
2338;SDS011;1180;51.438;6.978;2023-02-26T02:34:10;2.85;;;1.25;;
2338;SDS011;1180;51.438;6.978;2023-02-26T02:36:45;2.70;;;1.08;;
2338;SDS011;1180;51.438;6.978;2023-02-26T02:39:14;2.70;;;1.40;;
2338;SDS011;1180;51.438;6.978;2023-02-26T02:41:45;3.33;;;1.17;;
2338;SDS011;1180;51.438;6.978;2023-02-26T02:44:35;2.83;;;1.63;;
2338;SDS011;1180;51.438;6.978;2023-02-26T02:47:03;6.18;;;1.50;;
2338;SDS011;1180;51.438;6.978;2023-02-26T02:49:40;6.30;;;1.98;;
2338;SDS011;1180;51.438;6.978;2023-02-26T02:52:12;5.00;;;1.33;;
2338;SDS011;1180;51.438;6.978;2023-02-26T02:54:46;3.85;;;1.50;;
2338;SDS011;1180;51.438;6.978;2023-02-26T02:57:21;4.90;;;1.20;;
2338;SDS011;1180;51.438;6.978;2023-02-26T02:59:53;4.47;;;1.30;;
2338;SDS011;1180;51.438;6.978;2023-02-26T03:05:31;3.63;;;1.60;;
2338;SDS011;1180;51.438;6.978;2023-02-26T03:08:01;4.07;;;1.43;;
2338;SDS011;1180;51.438;6.978;2023-02-26T03:10:32;2.90;;;1.30;;
2338;SDS011;1180;51.438;6.978;2023-02-26T03:12:58;5.53;;;1.55;;
2338;SDS011;1180;51.438;6.978;2023-02-26T03:15:48;5.20;;;1.37;;
2338;SDS011;1180;51.438;6.978;2023-02-26T03:23:45;2.63;;;1.58;;
2338;SDS011;1180;51.438;6.978;2023-02-26T03:26:18;2.58;;;1.23;;
2338;SDS011;1180;51.438;6.978;2023-02-26T03:34:25;6.47;;;1.73;;
2338;SDS011;1180;51.438;6.978;2023-02-26T03:37:01;3.10;;;1.25;;
2338;SDS011;1180;51.438;6.978;2023-02-26T03:39:33;5.18;;;1.58;;
2338;SDS011;1180;51.438;6.978;2023-02-26T03:42:08;4.32;;;1.33;;
2338;SDS011;1180;51.438;6.978;2023-02-26T03:44:51;3.70;;;1.23;;
2338;SDS011;1180;51.438;6.978;2023-02-26T03:47:19;1.88;;;1.45;;
2338;SDS011;1180;51.438;6.978;2023-02-26T03:49:57;4.30;;;1.50;;
2338;SDS011;1180;51.438;6.978;2023-02-26T03:52:27;6.00;;;1.45;;
2338;SDS011;1180;51.438;6.978;2023-02-26T03:55:00;2.80;;;1.40;;
2338;SDS011;1180;51.438;6.978;2023-02-26T03:57:31;2.25;;;1.50;;
2338;SDS011;1180;51.438;6.978;2023-02-26T03:59:56;5.10;;;1.50;;
2338;SDS011;1180;51.438;6.978;2023-02-26T04:05:25;4.43;;;1.88;;
2338;SDS011;1180;51.438;6.978;2023-02-26T04:07:53;3.95;;;1.70;;
2338;SDS011;1180;51.438;6.978;2023-02-26T04:10:24;2.40;;;1.33;;
2338;SDS011;1180;51.438;6.978;2023-02-26T04:12:59;3.72;;;1.27;;
2338;SDS011;1180;51.438;6.978;2023-02-26T04:15:26;5.85;;;1.55;;
2338;SDS011;1180;51.438;6.978;2023-02-26T04:17:52;3.23;;;1.97;;
2338;SDS011;1180;51.438;6.978;2023-02-26T04:20:17;5.17;;;1.50;;
2338;SDS011;1180;51.438;6.978;2023-02-26T04:22:43;4.03;;;2.07;;
2338;SDS011;1180;51.438;6.978;2023-02-26T04:25:08;2.87;;;1.37;;
2338;SDS011;1180;51.438;6.978;2023-02-26T04:27:34;3.27;;;1.50;;
2338;SDS011;1180;51.438;6.978;2023-02-26T04:29:59;1.97;;;1.30;;
2338;SDS011;1180;51.438;6.978;2023-02-26T04:32:24;2.30;;;1.27;;
2338;SDS011;1180;51.438;6.978;2023-02-26T04:34:50;2.60;;;1.20;;
2338;SDS011;1180;51.438;6.978;2023-02-26T04:37:15;2.70;;;1.53;;
2338;SDS011;1180;51.438;6.978;2023-02-26T04:39:40;2.60;;;1.50;;
2338;SDS011;1180;51.438;6.978;2023-02-26T04:42:06;6.37;;;1.47;;
2338;SDS011;1180;51.438;6.978;2023-02-26T04:44:31;4.50;;;1.47;;
2338;SDS011;1180;51.438;6.978;2023-02-26T04:46:57;6.63;;;1.53;;
2338;SDS011;1180;51.438;6.978;2023-02-26T04:49:22;1.67;;;1.03;;
2338;SDS011;1180;51.438;6.978;2023-02-26T04:51:47;3.37;;;1.10;;
2338;SDS011;1180;51.438;6.978;2023-02-26T04:54:13;3.83;;;1.20;;
2338;SDS011;1180;51.438;6.978;2023-02-26T04:56:38;8.23;;;1.43;;
2338;SDS011;1180;51.438;6.978;2023-02-26T04:59:04;1.97;;;1.50;;
2338;SDS011;1180;51.438;6.978;2023-02-26T05:01:29;5.00;;;1.57;;
2338;SDS011;1180;51.438;6.978;2023-02-26T05:03:54;6.53;;;1.33;;
2338;SDS011;1180;51.438;6.978;2023-02-26T05:06:20;4.90;;;1.40;;
2338;SDS011;1180;51.438;6.978;2023-02-26T05:08:45;8.57;;;1.50;;
2338;SDS011;1180;51.438;6.978;2023-02-26T05:11:11;1.80;;;1.33;;
2338;SDS011;1180;51.438;6.978;2023-02-26T05:13:36;4.97;;;1.53;;
2338;SDS011;1180;51.438;6.978;2023-02-26T05:16:02;4.00;;;1.30;;
2338;SDS011;1180;51.438;6.978;2023-02-26T05:18:28;2.10;;;1.17;;
2338;SDS011;1180;51.438;6.978;2023-02-26T05:20:54;2.93;;;1.27;;
2338;SDS011;1180;51.438;6.978;2023-02-26T05:23:20;2.85;;;1.25;;
2338;SDS011;1180;51.438;6.978;2023-02-26T05:25:46;2.70;;;1.20;;
2338;SDS011;1180;51.438;6.978;2023-02-26T05:28:11;1.63;;;1.10;;
2338;SDS011;1180;51.438;6.978;2023-02-26T05:30:37;4.18;;;1.23;;
2338;SDS011;1180;51.438;6.978;2023-02-26T05:33:03;3.80;;;1.50;;
2338;SDS011;1180;51.438;6.978;2023-02-26T05:35:28;2.80;;;1.50;;
2338;SDS011;1180;51.438;6.978;2023-02-26T05:37:54;3.87;;;1.23;;
2338;SDS011;1180;51.438;6.978;2023-02-26T05:40:19;2.90;;;1.37;;
2338;SDS011;1180;51.438;6.978;2023-02-26T05:42:44;4.53;;;1.67;;
2338;SDS011;1180;51.438;6.978;2023-02-26T05:45:10;3.10;;;1.47;;
2338;SDS011;1180;51.438;6.978;2023-02-26T05:47:35;2.83;;;1.17;;
2338;SDS011;1180;51.438;6.978;2023-02-26T05:50:01;7.93;;;1.40;;
2338;SDS011;1180;51.438;6.978;2023-02-26T05:52:27;2.35;;;1.17;;
2338;SDS011;1180;51.438;6.978;2023-02-26T05:54:52;4.10;;;1.20;;
2338;SDS011;1180;51.438;6.978;2023-02-26T05:57:17;2.30;;;1.33;;
2338;SDS011;1180;51.438;6.978;2023-02-26T05:59:43;2.83;;;1.30;;
2338;SDS011;1180;51.438;6.978;2023-02-26T06:02:08;5.23;;;1.37;;
2338;SDS011;1180;51.438;6.978;2023-02-26T06:04:34;3.10;;;1.23;;
2338;SDS011;1180;51.438;6.978;2023-02-26T06:06:59;3.73;;;1.33;;
2338;SDS011;1180;51.438;6.978;2023-02-26T06:09:25;4.95;;;1.20;;
2338;SDS011;1180;51.438;6.978;2023-02-26T06:11:50;3.37;;;1.10;;
2338;SDS011;1180;51.438;6.978;2023-02-26T06:14:16;3.20;;;1.30;;
2338;SDS011;1180;51.438;6.978;2023-02-26T06:16:41;3.93;;;1.27;;
2338;SDS011;1180;51.438;6.978;2023-02-26T06:19:06;8.57;;;1.50;;
2338;SDS011;1180;51.438;6.978;2023-02-26T06:21:32;2.07;;;1.83;;
2338;SDS011;1180;51.438;6.978;2023-02-26T06:23:57;7.37;;;1.40;;
2338;SDS011;1180;51.438;6.978;2023-02-26T06:26:22;3.97;;;2.20;;
2338;SDS011;1180;51.438;6.978;2023-02-26T06:28:48;4.03;;;1.20;;
2338;SDS011;1180;51.438;6.978;2023-02-26T06:31:13;5.70;;;1.23;;
2338;SDS011;1180;51.438;6.978;2023-02-26T06:33:39;1.87;;;1.30;;
2338;SDS011;1180;51.438;6.978;2023-02-26T06:36:04;4.53;;;1.23;;
2338;SDS011;1180;51.438;6.978;2023-02-26T06:38:29;3.57;;;1.23;;
2338;SDS011;1180;51.438;6.978;2023-02-26T06:40:55;1.80;;;1.20;;
2338;SDS011;1180;51.438;6.978;2023-02-26T06:43:20;3.00;;;1.63;;
2338;SDS011;1180;51.438;6.978;2023-02-26T06:45:46;3.57;;;1.73;;
2338;SDS011;1180;51.438;6.978;2023-02-26T06:48:12;1.50;;;1.02;;
2338;SDS011;1180;51.438;6.978;2023-02-26T06:50:37;2.27;;;1.27;;
2338;SDS011;1180;51.438;6.978;2023-02-26T06:53:03;3.53;;;1.58;;
2338;SDS011;1180;51.438;6.978;2023-02-26T06:55:28;2.97;;;1.40;;
2338;SDS011;1180;51.438;6.978;2023-02-26T06:57:54;7.80;;;1.40;;
2338;SDS011;1180;51.438;6.978;2023-02-26T07:00:21;2.53;;;1.40;;
2338;SDS011;1180;51.438;6.978;2023-02-26T07:02:47;6.32;;;1.60;;
2338;SDS011;1180;51.438;6.978;2023-02-26T07:05:13;1.67;;;1.02;;
2338;SDS011;1180;51.438;6.978;2023-02-26T07:07:39;2.50;;;1.10;;
2338;SDS011;1180;51.438;6.978;2023-02-26T07:10:04;2.50;;;1.30;;
2338;SDS011;1180;51.438;6.978;2023-02-26T07:12:30;2.47;;;1.10;;
2338;SDS011;1180;51.438;6.978;2023-02-26T07:14:56;2.27;;;1.30;;
2338;SDS011;1180;51.438;6.978;2023-02-26T07:17:21;4.50;;;1.20;;
2338;SDS011;1180;51.438;6.978;2023-02-26T07:19:47;3.03;;;1.33;;
2338;SDS011;1180;51.438;6.978;2023-02-26T07:22:13;2.20;;;1.42;;
2338;SDS011;1180;51.438;6.978;2023-02-26T07:24:39;4.50;;;1.60;;
2338;SDS011;1180;51.438;6.978;2023-02-26T07:27:05;5.60;;;1.55;;
2338;SDS011;1180;51.438;6.978;2023-02-26T07:29:31;2.30;;;1.20;;
2338;SDS011;1180;51.438;6.978;2023-02-26T07:31:56;2.07;;;1.03;;
2338;SDS011;1180;51.438;6.978;2023-02-26T07:34:21;2.83;;;1.70;;
2338;SDS011;1180;51.438;6.978;2023-02-26T07:36:47;1.87;;;1.30;;
2338;SDS011;1180;51.438;6.978;2023-02-26T07:39:12;3.10;;;1.77;;
2338;SDS011;1180;51.438;6.978;2023-02-26T07:41:37;1.90;;;1.03;;
2338;SDS011;1180;51.438;6.978;2023-02-26T07:44:02;3.23;;;1.43;;
2338;SDS011;1180;51.438;6.978;2023-02-26T07:46:28;5.60;;;1.60;;
2338;SDS011;1180;51.438;6.978;2023-02-26T07:48:53;4.00;;;1.50;;
2338;SDS011;1180;51.438;6.978;2023-02-26T07:51:18;5.87;;;1.70;;
2338;SDS011;1180;51.438;6.978;2023-02-26T07:53:44;4.07;;;2.07;;
2338;SDS011;1180;51.438;6.978;2023-02-26T07:56:09;4.83;;;1.47;;
2338;SDS011;1180;51.438;6.978;2023-02-26T07:58:35;3.53;;;2.03;;
2338;SDS011;1180;51.438;6.978;2023-02-26T08:01:00;2.43;;;1.80;;
2338;SDS011;1180;51.438;6.978;2023-02-26T08:03:25;3.60;;;1.77;;
2338;SDS011;1180;51.438;6.978;2023-02-26T08:05:51;6.83;;;1.90;;
2338;SDS011;1180;51.438;6.978;2023-02-26T08:08:16;3.13;;;1.50;;
2338;SDS011;1180;51.438;6.978;2023-02-26T08:10:41;2.10;;;1.10;;
2338;SDS011;1180;51.438;6.978;2023-02-26T08:13:07;1.50;;;1.40;;
2338;SDS011;1180;51.438;6.978;2023-02-26T08:15:32;4.50;;;1.43;;
2338;SDS011;1180;51.438;6.978;2023-02-26T08:17:57;3.83;;;1.30;;
2338;SDS011;1180;51.438;6.978;2023-02-26T08:20:23;6.17;;;1.57;;
2338;SDS011;1180;51.438;6.978;2023-02-26T08:22:51;1.63;;;0.90;;
2338;SDS011;1180;51.438;6.978;2023-02-26T08:25:16;4.10;;;1.50;;
2338;SDS011;1180;51.438;6.978;2023-02-26T08:27:42;2.70;;;1.50;;
2338;SDS011;1180;51.438;6.978;2023-02-26T08:30:08;2.80;;;1.40;;
2338;SDS011;1180;51.438;6.978;2023-02-26T08:32:34;2.40;;;1.15;;
2338;SDS011;1180;51.438;6.978;2023-02-26T08:35:00;2.50;;;1.37;;
2338;SDS011;1180;51.438;6.978;2023-02-26T08:37:25;6.57;;;1.40;;
2338;SDS011;1180;51.438;6.978;2023-02-26T08:39:51;5.80;;;2.20;;
2338;SDS011;1180;51.438;6.978;2023-02-26T08:42:17;3.22;;;0.80;;
2338;SDS011;1180;51.438;6.978;2023-02-26T08:44:44;3.95;;;2.10;;
2338;SDS011;1180;51.438;6.978;2023-02-26T08:47:10;2.53;;;1.60;;
2338;SDS011;1180;51.438;6.978;2023-02-26T08:49:35;3.00;;;1.40;;
2338;SDS011;1180;51.438;6.978;2023-02-26T08:52:00;5.53;;;1.47;;
2338;SDS011;1180;51.438;6.978;2023-02-26T08:54:26;1.40;;;0.80;;
2338;SDS011;1180;51.438;6.978;2023-02-26T08:56:51;3.13;;;1.27;;
2338;SDS011;1180;51.438;6.978;2023-02-26T08:59:21;5.05;;;1.50;;
2338;SDS011;1180;51.438;6.978;2023-02-26T09:01:47;2.42;;;1.83;;
2338;SDS011;1180;51.438;6.978;2023-02-26T09:04:13;7.40;;;1.50;;
2338;SDS011;1180;51.438;6.978;2023-02-26T09:06:38;7.03;;;1.20;;
2338;SDS011;1180;51.438;6.978;2023-02-26T09:09:04;4.30;;;1.30;;
2338;SDS011;1180;51.438;6.978;2023-02-26T09:11:29;2.70;;;1.30;;
2338;SDS011;1180;51.438;6.978;2023-02-26T09:13:56;2.20;;;1.30;;
2338;SDS011;1180;51.438;6.978;2023-02-26T09:16:26;4.22;;;1.20;;
2338;SDS011;1180;51.438;6.978;2023-02-26T09:18:51;1.33;;;0.83;;
2338;SDS011;1180;51.438;6.978;2023-02-26T09:21:17;3.37;;;1.00;;
2338;SDS011;1180;51.438;6.978;2023-02-26T09:23:42;1.87;;;1.30;;
2338;SDS011;1180;51.438;6.978;2023-02-26T09:26:07;2.90;;;1.00;;
2338;SDS011;1180;51.438;6.978;2023-02-26T09:28:34;2.92;;;1.40;;
2338;SDS011;1180;51.438;6.978;2023-02-26T09:30:59;1.83;;;1.30;;
2338;SDS011;1180;51.438;6.978;2023-02-26T09:33:24;2.33;;;0.90;;
2338;SDS011;1180;51.438;6.978;2023-02-26T09:35:50;2.60;;;1.10;;
2338;SDS011;1180;51.438;6.978;2023-02-26T09:38:16;2.08;;;1.27;;
2338;SDS011;1180;51.438;6.978;2023-02-26T09:40:57;4.37;;;2.13;;
2338;SDS011;1180;51.438;6.978;2023-02-26T09:48:53;2.30;;;1.30;;
2338;SDS011;1180;51.438;6.978;2023-02-26T09:51:36;4.55;;;1.38;;
2338;SDS011;1180;51.438;6.978;2023-02-26T09:54:04;2.80;;;1.10;;
2338;SDS011;1180;51.438;6.978;2023-02-26T09:56:38;3.10;;;1.52;;
2338;SDS011;1180;51.438;6.978;2023-02-26T09:59:04;2.50;;;1.10;;
2338;SDS011;1180;51.438;6.978;2023-02-26T10:01:40;5.03;;;1.07;;
2338;SDS011;1180;51.438;6.978;2023-02-26T10:07:12;1.83;;;1.20;;
2338;SDS011;1180;51.438;6.978;2023-02-26T10:12:26;4.18;;;1.45;;
2338;SDS011;1180;51.438;6.978;2023-02-26T10:18:03;1.20;;;1.10;;
2338;SDS011;1180;51.438;6.978;2023-02-26T10:23:42;2.88;;;1.40;;
2338;SDS011;1180;51.438;6.978;2023-02-26T10:31:37;4.53;;;1.38;;
2338;SDS011;1180;51.438;6.978;2023-02-26T10:39:21;3.30;;;1.65;;
2338;SDS011;1180;51.438;6.978;2023-02-26T10:41:54;4.90;;;1.50;;
2338;SDS011;1180;51.438;6.978;2023-02-26T10:50:10;2.45;;;1.27;;
2338;SDS011;1180;51.438;6.978;2023-02-26T10:52:38;2.40;;;1.63;;
2338;SDS011;1180;51.438;6.978;2023-02-26T11:00:40;3.63;;;1.35;;
2338;SDS011;1180;51.438;6.978;2023-02-26T11:03:07;3.00;;;1.85;;
2338;SDS011;1180;51.438;6.978;2023-02-26T11:05:37;1.83;;;0.98;;
2338;SDS011;1180;51.438;6.978;2023-02-26T11:08:12;4.63;;;1.27;;
2338;SDS011;1180;51.438;6.978;2023-02-26T11:10:41;1.63;;;1.05;;
2338;SDS011;1180;51.438;6.978;2023-02-26T11:13:25;1.88;;;1.13;;
2338;SDS011;1180;51.438;6.978;2023-02-26T11:15:53;1.83;;;1.30;;
2338;SDS011;1180;51.438;6.978;2023-02-26T11:18:25;2.92;;;1.00;;
2338;SDS011;1180;51.438;6.978;2023-02-26T11:20:54;1.38;;;1.15;;
2338;SDS011;1180;51.438;6.978;2023-02-26T11:23:23;1.52;;;1.00;;
2338;SDS011;1180;51.438;6.978;2023-02-26T11:25:56;1.83;;;1.27;;
2338;SDS011;1180;51.438;6.978;2023-02-26T11:28:30;2.53;;;1.00;;
2338;SDS011;1180;51.438;6.978;2023-02-26T11:30:59;2.25;;;1.17;;
2338;SDS011;1180;51.438;6.978;2023-02-26T11:33:27;2.45;;;1.13;;
2338;SDS011;1180;51.438;6.978;2023-02-26T11:36:00;1.60;;;0.90;;
2338;SDS011;1180;51.438;6.978;2023-02-26T11:38:29;2.97;;;1.05;;
2338;SDS011;1180;51.438;6.978;2023-02-26T11:40:57;2.40;;;1.90;;
2338;SDS011;1180;51.438;6.978;2023-02-26T11:43:32;1.27;;;1.02;;
2338;SDS011;1180;51.438;6.978;2023-02-26T11:46:00;1.58;;;1.10;;
2338;SDS011;1180;51.438;6.978;2023-02-26T11:48:42;1.10;;;0.93;;
2338;SDS011;1180;51.438;6.978;2023-02-26T11:51:12;2.17;;;0.98;;
2338;SDS011;1180;51.438;6.978;2023-02-26T11:54:01;10.35;;;1.55;;
2338;SDS011;1180;51.438;6.978;2023-02-26T11:56:33;2.80;;;1.08;;
2338;SDS011;1180;51.438;6.978;2023-02-26T11:59:05;3.30;;;1.52;;
2338;SDS011;1180;51.438;6.978;2023-02-26T12:01:34;3.67;;;1.85;;
2338;SDS011;1180;51.438;6.978;2023-02-26T12:04:01;2.40;;;0.98;;
2338;SDS011;1180;51.438;6.978;2023-02-26T12:06:27;2.83;;;0.95;;
2338;SDS011;1180;51.438;6.978;2023-02-26T12:08:53;2.47;;;1.10;;
2338;SDS011;1180;51.438;6.978;2023-02-26T12:11:35;1.10;;;0.80;;
2338;SDS011;1180;51.438;6.978;2023-02-26T12:19:40;3.92;;;1.40;;
2338;SDS011;1180;51.438;6.978;2023-02-26T12:25:17;3.25;;;1.15;;
2338;SDS011;1180;51.438;6.978;2023-02-26T12:36:19;1.35;;;1.00;;
2338;SDS011;1180;51.438;6.978;2023-02-26T12:47:55;1.48;;;1.20;;
2338;SDS011;1180;51.438;6.978;2023-02-26T13:03:40;1.60;;;1.20;;
2338;SDS011;1180;51.438;6.978;2023-02-26T13:17:03;1.38;;;0.82;;
2338;SDS011;1180;51.438;6.978;2023-02-26T13:22:28;1.55;;;1.15;;
2338;SDS011;1180;51.438;6.978;2023-02-26T13:25:05;1.10;;;0.95;;
2338;SDS011;1180;51.438;6.978;2023-02-26T13:27:39;2.15;;;1.25;;
2338;SDS011;1180;51.438;6.978;2023-02-26T13:30:18;2.20;;;1.20;;
2338;SDS011;1180;51.438;6.978;2023-02-26T13:32:47;2.75;;;2.05;;
2338;SDS011;1180;51.438;6.978;2023-02-26T13:35:19;1.45;;;0.90;;
2338;SDS011;1180;51.438;6.978;2023-02-26T13:37:52;1.75;;;0.90;;
2338;SDS011;1180;51.438;6.978;2023-02-26T13:45:43;1.70;;;1.10;;
2338;SDS011;1180;51.438;6.978;2023-02-26T13:58:38;1.23;;;1.13;;
2338;SDS011;1180;51.438;6.978;2023-02-26T14:14:27;1.90;;;1.00;;
2338;SDS011;1180;51.438;6.978;2023-02-26T14:19:26;3.43;;;1.00;;
2338;SDS011;1180;51.438;6.978;2023-02-26T14:24:31;3.43;;;1.00;;
2338;SDS011;1180;51.438;6.978;2023-02-26T14:27:06;2.30;;;1.07;;
2338;SDS011;1180;51.438;6.978;2023-02-26T14:29:39;2.08;;;1.20;;
2338;SDS011;1180;51.438;6.978;2023-02-26T14:34:36;1.47;;;1.07;;
2338;SDS011;1180;51.438;6.978;2023-02-26T14:37:11;2.20;;;1.33;;
2338;SDS011;1180;51.438;6.978;2023-02-26T14:39:41;1.90;;;1.17;;
2338;SDS011;1180;51.438;6.978;2023-02-26T14:42:12;3.13;;;0.85;;
2338;SDS011;1180;51.438;6.978;2023-02-26T14:44:45;2.40;;;1.13;;
2338;SDS011;1180;51.438;6.978;2023-02-26T14:47:14;1.30;;;1.20;;
2338;SDS011;1180;51.438;6.978;2023-02-26T14:49:43;2.03;;;1.20;;
2338;SDS011;1180;51.438;6.978;2023-02-26T14:57:50;4.75;;;0.90;;
2338;SDS011;1180;51.438;6.978;2023-02-26T15:00:25;1.60;;;1.00;;
2338;SDS011;1180;51.438;6.978;2023-02-26T15:03:40;1.50;;;1.10;;
2338;SDS011;1180;51.438;6.978;2023-02-26T15:06:09;1.67;;;1.10;;
2338;SDS011;1180;51.438;6.978;2023-02-26T15:25:35;1.80;;;1.07;;
2338;SDS011;1180;51.438;6.978;2023-02-26T15:28:04;1.90;;;1.30;;
2338;SDS011;1180;51.438;6.978;2023-02-26T15:30:32;1.53;;;0.90;;
2338;SDS011;1180;51.438;6.978;2023-02-26T15:32:59;2.30;;;1.57;;
2338;SDS011;1180;51.438;6.978;2023-02-26T15:35:28;1.37;;;1.10;;
2338;SDS011;1180;51.438;6.978;2023-02-26T15:37:58;3.50;;;1.27;;
2338;SDS011;1180;51.438;6.978;2023-02-26T15:40:26;2.03;;;1.40;;
2338;SDS011;1180;51.438;6.978;2023-02-26T15:42:55;3.70;;;1.07;;
2338;SDS011;1180;51.438;6.978;2023-02-26T15:48:19;4.50;;;1.10;;
2338;SDS011;1180;51.438;6.978;2023-02-26T15:50:51;2.28;;;1.20;;
2338;SDS011;1180;51.438;6.978;2023-02-26T15:53:41;1.40;;;0.90;;
2338;SDS011;1180;51.438;6.978;2023-02-26T15:56:11;1.27;;;1.00;;
2338;SDS011;1180;51.438;6.978;2023-02-26T15:58:45;1.90;;;1.10;;
2338;SDS011;1180;51.438;6.978;2023-02-26T16:01:15;1.23;;;0.87;;
2338;SDS011;1180;51.438;6.978;2023-02-26T16:03:42;1.77;;;1.23;;
2338;SDS011;1180;51.438;6.978;2023-02-26T16:06:12;2.07;;;1.43;;
2338;SDS011;1180;51.438;6.978;2023-02-26T16:08:44;1.60;;;1.17;;
2338;SDS011;1180;51.438;6.978;2023-02-26T16:11:10;2.23;;;1.23;;
2338;SDS011;1180;51.438;6.978;2023-02-26T16:13:38;3.37;;;1.20;;
2338;SDS011;1180;51.438;6.978;2023-02-26T16:16:14;2.70;;;1.30;;
2338;SDS011;1180;51.438;6.978;2023-02-26T16:18:47;5.00;;;1.37;;
2338;SDS011;1180;51.438;6.978;2023-02-26T16:21:33;2.07;;;1.40;;
2338;SDS011;1180;51.438;6.978;2023-02-26T16:24:01;4.77;;;1.50;;
2338;SDS011;1180;51.438;6.978;2023-02-26T16:26:32;1.98;;;1.30;;
2338;SDS011;1180;51.438;6.978;2023-02-26T16:29:11;4.97;;;1.45;;
2338;SDS011;1180;51.438;6.978;2023-02-26T16:31:44;1.63;;;1.10;;
2338;SDS011;1180;51.438;6.978;2023-02-26T16:36:53;2.10;;;1.38;;
2338;SDS011;1180;51.438;6.978;2023-02-26T16:39:22;1.85;;;1.38;;
2338;SDS011;1180;51.438;6.978;2023-02-26T16:41:59;1.50;;;1.10;;
2338;SDS011;1180;51.438;6.978;2023-02-26T16:44:43;2.20;;;1.17;;
2338;SDS011;1180;51.438;6.978;2023-02-26T16:47:12;1.70;;;1.30;;
2338;SDS011;1180;51.438;6.978;2023-02-26T16:49:39;2.20;;;1.30;;
2338;SDS011;1180;51.438;6.978;2023-02-26T16:52:06;6.05;;;1.67;;
2338;SDS011;1180;51.438;6.978;2023-02-26T16:54:40;2.22;;;1.20;;
2338;SDS011;1180;51.438;6.978;2023-02-26T16:57:17;2.67;;;1.42;;
2338;SDS011;1180;51.438;6.978;2023-02-26T16:59:55;1.80;;;1.38;;
2338;SDS011;1180;51.438;6.978;2023-02-26T17:02:26;2.65;;;1.10;;
2338;SDS011;1180;51.438;6.978;2023-02-26T17:04:53;3.25;;;1.67;;
2338;SDS011;1180;51.438;6.978;2023-02-26T17:10:21;1.30;;;1.20;;
2338;SDS011;1180;51.438;6.978;2023-02-26T17:12:53;2.97;;;1.73;;
2338;SDS011;1180;51.438;6.978;2023-02-26T17:15:29;2.85;;;1.63;;
2338;SDS011;1180;51.438;6.978;2023-02-26T17:17:59;1.42;;;1.30;;
2338;SDS011;1180;51.438;6.978;2023-02-26T17:20:25;1.87;;;1.30;;
2338;SDS011;1180;51.438;6.978;2023-02-26T17:22:54;2.70;;;1.80;;
2338;SDS011;1180;51.438;6.978;2023-02-26T17:25:21;2.10;;;1.58;;
2338;SDS011;1180;51.438;6.978;2023-02-26T17:27:49;5.20;;;2.10;;
2338;SDS011;1180;51.438;6.978;2023-02-26T17:30:16;2.35;;;1.70;;
2338;SDS011;1180;51.438;6.978;2023-02-26T17:32:47;4.03;;;1.30;;
2338;SDS011;1180;51.438;6.978;2023-02-26T17:35:13;2.90;;;1.23;;
2338;SDS011;1180;51.438;6.978;2023-02-26T17:37:40;2.22;;;1.58;;
2338;SDS011;1180;51.438;6.978;2023-02-26T17:40:30;2.40;;;1.95;;
2338;SDS011;1180;51.438;6.978;2023-02-26T17:42:56;1.85;;;1.60;;
2338;SDS011;1180;51.438;6.978;2023-02-26T17:45:23;1.85;;;1.27;;
2338;SDS011;1180;51.438;6.978;2023-02-26T17:47:49;3.57;;;1.50;;
2338;SDS011;1180;51.438;6.978;2023-02-26T17:52:49;2.95;;;1.35;;
2338;SDS011;1180;51.438;6.978;2023-02-26T17:55:14;2.47;;;1.67;;
2338;SDS011;1180;51.438;6.978;2023-02-26T17:57:39;3.57;;;1.57;;
2338;SDS011;1180;51.438;6.978;2023-02-26T18:00:05;1.53;;;1.17;;
2338;SDS011;1180;51.438;6.978;2023-02-26T18:02:31;3.83;;;2.20;;
2338;SDS011;1180;51.438;6.978;2023-02-26T18:04:56;3.37;;;2.17;;
2338;SDS011;1180;51.438;6.978;2023-02-26T18:07:22;3.63;;;1.73;;
2338;SDS011;1180;51.438;6.978;2023-02-26T18:09:48;3.20;;;2.15;;
2338;SDS011;1180;51.438;6.978;2023-02-26T18:12:15;3.30;;;2.00;;
2338;SDS011;1180;51.438;6.978;2023-02-26T18:14:44;3.45;;;1.65;;
2338;SDS011;1180;51.438;6.978;2023-02-26T18:17:13;3.95;;;1.98;;
2338;SDS011;1180;51.438;6.978;2023-02-26T18:19:42;2.47;;;2.08;;
2338;SDS011;1180;51.438;6.978;2023-02-26T18:22:13;5.97;;;2.40;;
2338;SDS011;1180;51.438;6.978;2023-02-26T18:24:40;4.32;;;2.10;;
2338;SDS011;1180;51.438;6.978;2023-02-26T18:27:09;9.52;;;2.90;;
2338;SDS011;1180;51.438;6.978;2023-02-26T18:29:38;4.18;;;2.50;;
2338;SDS011;1180;51.438;6.978;2023-02-26T18:32:03;3.40;;;2.50;;
2338;SDS011;1180;51.438;6.978;2023-02-26T18:34:29;4.30;;;2.27;;
2338;SDS011;1180;51.438;6.978;2023-02-26T18:36:55;4.07;;;2.93;;
2338;SDS011;1180;51.438;6.978;2023-02-26T18:39:21;2.85;;;2.45;;
2338;SDS011;1180;51.438;6.978;2023-02-26T18:41:49;3.55;;;2.72;;
2338;SDS011;1180;51.438;6.978;2023-02-26T18:44:14;3.70;;;2.80;;
2338;SDS011;1180;51.438;6.978;2023-02-26T18:46:40;5.20;;;2.40;;
2338;SDS011;1180;51.438;6.978;2023-02-26T18:49:09;3.53;;;2.25;;
2338;SDS011;1180;51.438;6.978;2023-02-26T18:51:40;3.25;;;2.80;;
2338;SDS011;1180;51.438;6.978;2023-02-26T18:54:05;4.80;;;2.70;;
2338;SDS011;1180;51.438;6.978;2023-02-26T18:56:31;4.87;;;3.27;;
2338;SDS011;1180;51.438;6.978;2023-02-26T18:58:56;6.50;;;2.87;;
2338;SDS011;1180;51.438;6.978;2023-02-26T19:01:22;3.70;;;2.43;;
2338;SDS011;1180;51.438;6.978;2023-02-26T19:03:48;6.05;;;3.35;;
2338;SDS011;1180;51.438;6.978;2023-02-26T19:06:13;4.00;;;2.90;;
2338;SDS011;1180;51.438;6.978;2023-02-26T19:08:39;5.30;;;3.43;;
2338;SDS011;1180;51.438;6.978;2023-02-26T19:11:05;4.38;;;3.25;;